Time;durP1;ratioP1;P1;durP2;ratioP2;P2;SDS_P1;SDS_P2;PMS_P1;PMS_P2;Temp;Humidity;BMP_temperature;BMP_pressure;BME280_temperature;BME280_humidity;BME280_pressure;Samples;Min_cycle;Max_cycle;Signal;HPM_P1;HPM_P2
2023/04/05 00:01:07;;;;;;;199.47;191.97;;;-1.10;99.90;;;;;;5057779;28;20564;-78
2023/04/05 00:03:34;;;;;;;177.68;170.88;;;-1.10;99.90;;;;;;5053057;28;20458;-78
2023/04/05 00:06:04;;;;;;;156.43;150.00;;;-1.20;99.90;;;;;;5071687;28;20192;-78
2023/04/05 00:08:31;;;;;;;153.13;146.88;;;-1.20;99.90;;;;;;5063465;28;20221;-77
2023/04/05 00:10:58;;;;;;;175.32;168.38;;;-1.10;99.90;;;;;;5052249;28;20189;-78
2023/04/05 00:13:25;;;;;;;157.83;151.83;;;-1.20;99.90;;;;;;5053791;28;20192;-78
2023/04/05 00:15:53;;;;;;;156.40;150.05;;;-1.20;99.90;;;;;;5055552;28;21058;-79
2023/04/05 00:18:22;;;;;;;156.75;150.25;;;-1.20;99.90;;;;;;5071375;28;20213;-78
2023/04/05 00:20:50;;;;;;;167.27;160.45;;;-1.10;99.90;;;;;;5067417;28;20193;-78
2023/04/05 00:23:17;;;;;;;146.60;141.10;;;-1.20;99.90;;;;;;5053624;28;20690;-79
2023/04/05 00:25:44;;;;;;;200.65;192.35;;;-1.30;99.90;;;;;;5071514;28;20185;-78
2023/04/05 00:28:12;;;;;;;240.77;231.00;;;-1.30;99.90;;;;;;5067551;28;20208;-78
2023/04/05 00:30:42;;;;;;;205.70;197.10;;;-1.30;99.90;;;;;;5053476;28;20185;-79
2023/04/05 00:33:08;;;;;;;292.90;280.88;;;-1.40;99.90;;;;;;5066189;28;20195;-78
2023/04/05 00:35:36;;;;;;;295.52;283.52;;;-1.40;99.90;;;;;;5060898;28;20296;-78
2023/04/05 00:38:05;;;;;;;304.25;291.52;;;-1.40;99.90;;;;;;5050320;28;20222;-78
2023/04/05 00:40:32;;;;;;;343.52;329.05;;;-1.30;99.90;;;;;;5065472;28;20207;-78
2023/04/05 00:42:59;;;;;;;332.30;317.52;;;-1.40;99.90;;;;;;5054307;28;20189;-78
2023/04/05 00:45:26;;;;;;;301.40;288.53;;;-1.40;99.90;;;;;;5062028;28;20200;-78
2023/04/05 00:47:53;;;;;;;401.10;383.35;;;-1.40;99.90;;;;;;5063104;28;20852;-79
2023/04/05 00:50:23;;;;;;;386.58;369.52;;;-1.20;99.90;;;;;;5057095;28;20197;-78
2023/04/05 00:52:51;;;;;;;362.10;346.10;;;-1.10;99.90;;;;;;5070323;28;20204;-78
2023/04/05 00:55:21;;;;;;;339.42;324.85;;;-1.10;99.90;;;;;;5053921;28;20193;-78
2023/04/05 00:57:48;;;;;;;412.08;393.38;;;-1.10;99.90;;;;;;5071179;28;20307;-78
2023/04/05 01:00:20;;;;;;;437.67;417.00;;;-1.00;99.90;;;;;;5069077;28;20242;-78
2023/04/05 01:02:51;;;;;;;444.23;423.27;;;-0.90;99.90;;;;;;5055745;28;20882;-78
2023/04/05 01:05:38;;;;;;;435.17;415.60;;;-1.00;99.90;;;;;;5055545;28;20197;-79
2023/04/05 01:08:16;;;;;;;433.00;412.90;;;-1.00;99.90;;;;;;5065161;28;20466;-79
2023/04/05 01:10:48;;;;;;;434.30;413.92;;;-1.00;99.90;;;;;;5059625;28;20458;-79
2023/04/05 01:13:16;;;;;;;390.13;372.90;;;-1.00;99.90;;;;;;5075549;28;20287;-78
2023/04/05 01:15:43;;;;;;;391.20;373.45;;;-1.00;99.90;;;;;;5040751;28;20319;-79
2023/04/05 01:18:10;;;;;;;399.83;382.13;;;-1.10;99.90;;;;;;5070685;28;20224;-78
2023/04/05 01:20:43;;;;;;;396.20;378.10;;;-1.00;99.90;;;;;;5073393;28;20529;-78
2023/04/05 01:23:44;;;;;;;410.20;391.43;;;-1.00;99.90;;;;;;5059656;28;20851;-78
2023/04/05 01:26:46;;;;;;;375.63;358.77;;;-0.90;99.90;;;;;;5012810;28;20452;-78
2023/04/05 01:29:42;;;;;;;382.47;365.97;;;-0.80;99.90;;;;;;5066599;28;20495;-78
2023/04/05 01:32:17;;;;;;;432.87;411.77;;;-0.70;99.90;;;;;;5067228;28;20462;-79
2023/04/05 01:34:52;;;;;;;432.08;411.85;;;-0.60;99.90;;;;;;5054761;28;20447;-78
2023/04/05 01:37:25;;;;;;;457.17;433.97;;;-0.50;99.90;;;;;;5060484;28;20691;-78
2023/04/05 01:39:52;;;;;;;456.73;435.20;;;-0.50;99.90;;;;;;5073511;28;20468;-79
2023/04/05 01:42:30;;;;;;;409.57;392.07;;;-0.40;99.90;;;;;;5060422;28;20201;-79
2023/04/05 01:44:58;;;;;;;420.52;402.13;;;-0.30;99.90;;;;;;5057809;28;20493;-79
2023/04/05 01:47:25;;;;;;;401.58;384.98;;;-0.20;99.90;;;;;;5062418;28;20192;-79
2023/04/05 01:49:52;;;;;;;433.17;414.13;;;-0.20;99.90;;;;;;5076646;28;20195;-79
2023/04/05 01:52:19;;;;;;;395.83;379.43;;;-0.10;99.90;;;;;;5055071;28;20448;-79
2023/04/05 01:54:46;;;;;;;397.23;380.60;;;0.00;99.90;;;;;;5057044;28;20443;-79
2023/04/05 01:57:13;;;;;;;400.23;382.53;;;-0.10;99.90;;;;;;5073850;28;20473;-78
2023/04/05 01:59:40;;;;;;;413.63;394.97;;;-0.20;99.90;;;;;;5072654;28;20471;-78
2023/04/05 02:02:09;;;;;;;424.40;405.53;;;-0.10;99.90;;;;;;5061781;28;20962;-78
2023/04/05 02:04:36;;;;;;;426.35;407.25;;;-0.10;99.90;;;;;;5063664;28;20530;-78
2023/04/05 02:07:03;;;;;;;425.17;406.30;;;-0.10;99.90;;;;;;5057846;28;20188;-79
2023/04/05 02:09:30;;;;;;;410.07;391.67;;;-0.20;99.90;;;;;;5053734;28;20472;-79
2023/04/05 02:12:00;;;;;;;422.30;403.80;;;-0.20;99.90;;;;;;5073736;28;20451;-79
2023/04/05 02:14:27;;;;;;;432.07;412.27;;;-0.20;99.90;;;;;;5072631;28;20932;-78
2023/04/05 02:16:54;;;;;;;458.80;437.83;;;-0.20;99.90;;;;;;5070595;28;20471;-79
2023/04/05 02:19:24;;;;;;;469.95;448.13;;;-0.30;99.90;;;;;;5053900;28;20566;-79
2023/04/05 02:21:52;;;;;;;480.98;458.80;;;-0.30;99.90;;;;;;5072017;28;20279;-79
2023/04/05 02:24:20;;;;;;;481.05;458.05;;;-0.30;99.90;;;;;;5073010;28;20575;-78
2023/04/05 02:26:47;;;;;;;486.90;464.20;;;-0.40;99.90;;;;;;5054757;28;20625;-78
2023/04/05 02:29:14;;;;;;;520.50;495.93;;;-0.50;99.90;;;;;;5071536;28;20565;-78
2023/04/05 02:31:41;;;;;;;532.63;507.25;;;-0.50;99.90;;;;;;5072723;28;20454;-79
2023/04/05 02:34:10;;;;;;;574.00;545.00;;;-0.60;99.90;;;;;;5037705;28;20204;-78
2023/04/05 02:36:40;;;;;;;579.10;551.17;;;-0.60;99.90;;;;;;5061792;28;20498;-78
2023/04/05 02:39:07;;;;;;;611.20;580.42;;;-0.60;99.90;;;;;;5055944;28;20595;-78
2023/04/05 02:41:34;;;;;;;578.20;549.50;;;-0.50;99.90;;;;;;5071593;28;20189;-78
2023/04/05 02:44:01;;;;;;;568.33;540.50;;;-0.60;99.90;;;;;;5072052;28;20192;-78
2023/04/05 02:46:28;;;;;;;539.28;513.53;;;-0.70;99.90;;;;;;5057580;28;20546;-78
2023/04/05 02:48:55;;;;;;;562.42;535.53;;;-0.80;99.90;;;;;;5068468;28;20240;-78
2023/04/05 02:51:22;;;;;;;537.25;511.20;;;-0.80;99.90;;;;;;5071660;28;20265;-78
2023/04/05 02:53:51;;;;;;;520.83;496.33;;;-0.80;99.90;;;;;;5055759;28;20193;-78
2023/04/05 02:56:23;;;;;;;537.47;512.10;;;-0.90;99.90;;;;;;5057219;28;21006;-78
2023/04/05 02:58:50;;;;;;;518.03;494.23;;;-0.90;99.90;;;;;;5061241;28;20476;-78
2023/04/05 03:01:17;;;;;;;499.90;477.77;;;-0.90;99.90;;;;;;5067962;28;20447;-78
2023/04/05 03:03:44;;;;;;;508.42;485.23;;;-1.00;99.90;;;;;;5051370;28;20459;-79
2023/04/05 03:06:11;;;;;;;505.67;482.80;;;-1.00;99.90;;;;;;5055570;28;20206;-78
2023/04/05 03:08:38;;;;;;;495.42;473.33;;;-1.00;99.90;;;;;;5055851;28;20215;-79
2023/04/05 03:11:07;;;;;;;500.77;478.57;;;-0.90;99.90;;;;;;5067455;28;20257;-78
2023/04/05 03:13:34;;;;;;;559.80;533.83;;;-1.00;99.90;;;;;;5064434;28;20946;-78
2023/04/05 03:16:01;;;;;;;600.65;571.20;;;-1.00;99.90;;;;;;5070149;28;20458;-79
2023/04/05 03:18:29;;;;;;;612.53;580.97;;;-0.90;99.90;;;;;;5058626;28;20217;-79
2023/04/05 03:20:56;;;;;;;623.08;591.80;;;-1.00;99.90;;;;;;5062256;28;20443;-78
2023/04/05 03:23:26;;;;;;;610.85;579.80;;;-1.00;99.90;;;;;;5072047;28;20622;-78
2023/04/05 03:25:58;;;;;;;602.70;572.92;;;-1.20;99.90;;;;;;5062935;28;20736;-78
2023/04/05 03:28:28;;;;;;;595.92;566.58;;;-1.40;99.90;;;;;;5069400;28;20205;-78
2023/04/05 03:30:56;;;;;;;633.60;601.00;;;-1.50;99.90;;;;;;5052714;28;20201;-78
2023/04/05 03:33:23;;;;;;;674.88;639.17;;;-1.50;99.90;;;;;;5050950;28;20215;-78
2023/04/05 03:35:50;;;;;;;730.90;690.28;;;-1.50;99.90;;;;;;5064252;28;20189;-78
2023/04/05 03:38:17;;;;;;;728.38;686.30;;;-1.50;99.90;;;;;;5059968;28;20716;-78
2023/04/05 03:40:44;;;;;;;718.80;676.67;;;-1.60;99.90;;;;;;5051935;28;20661;-78
2023/04/05 03:43:12;;;;;;;697.03;658.03;;;-1.70;99.90;;;;;;5061470;28;20192;-78
2023/04/05 03:45:40;;;;;;;691.05;652.30;;;-1.80;99.90;;;;;;5068795;28;20197;-78
2023/04/05 03:48:07;;;;;;;678.95;641.95;;;-1.90;99.90;;;;;;5056158;28;20279;-78
2023/04/05 03:50:34;;;;;;;685.75;647.85;;;-2.00;99.90;;;;;;5064536;28;20571;-78
2023/04/05 03:53:02;;;;;;;680.45;643.38;;;-1.90;99.90;;;;;;5032133;28;20202;-78
2023/04/05 03:55:31;;;;;;;684.28;647.85;;;-1.90;99.90;;;;;;5039288;28;20189;-78
2023/04/05 03:57:58;;;;;;;673.30;637.63;;;-1.90;99.90;;;;;;5051598;28;20240;-78
2023/04/05 04:00:25;;;;;;;672.35;635.45;;;-1.90;99.90;;;;;;5053235;28;20195;-78
2023/04/05 04:02:53;;;;;;;694.17;656.00;;;-1.90;99.90;;;;;;5051427;28;20645;-78
2023/04/05 04:05:24;;;;;;;642.60;608.13;;;-1.90;99.90;;;;;;5053217;28;20193;-77
2023/04/05 04:07:50;;;;;;;639.78;605.58;;;-2.10;99.90;;;;;;5071781;28;20729;-78
2023/04/05 04:10:18;;;;;;;648.13;613.85;;;-2.10;99.90;;;;;;5070694;28;20199;-78
2023/04/05 04:12:45;;;;;;;658.50;622.58;;;-2.10;99.90;;;;;;5036962;28;20193;-78
2023/04/05 04:15:12;;;;;;;724.70;682.97;;;-2.10;99.90;;;;;;5051800;28;20207;-78
2023/04/05 04:17:39;;;;;;;729.35;689.05;;;-1.90;99.90;;;;;;5051583;28;20304;-78
2023/04/05 04:20:09;;;;;;;723.45;685.33;;;-1.80;99.90;;;;;;5051780;28;20224;-78
2023/04/05 04:22:39;;;;;;;660.15;628.72;;;-1.70;99.90;;;;;;5050417;28;20189;-78
2023/04/05 04:25:09;;;;;;;696.85;662.38;;;-1.70;99.90;;;;;;5055157;28;20191;-78
2023/04/05 04:27:41;;;;;;;694.15;656.58;;;-1.70;99.90;;;;;;5071697;28;20196;-78
2023/04/05 04:30:11;;;;;;;676.53;640.47;;;-1.70;99.90;;;;;;5069846;28;20191;-78
2023/04/05 04:32:51;;;;;;;548.55;525.55;;;-1.70;99.90;;;;;;5070351;28;20196;-78
2023/04/05 04:35:23;;;;;;;580.83;555.45;;;-1.70;99.90;;;;;;5067202;28;20192;-78
2023/04/05 04:37:56;;;;;;;695.50;659.95;;;-1.70;99.90;;;;;;5051641;28;20221;-78
2023/04/05 04:40:24;;;;;;;698.25;660.22;;;-1.90;99.90;;;;;;5057655;28;20195;-78
2023/04/05 04:42:51;;;;;;;707.42;667.25;;;-1.90;99.90;;;;;;5074532;28;20281;-78
2023/04/05 04:45:22;;;;;;;701.30;662.17;;;-2.10;99.90;;;;;;5073734;28;20196;-78
2023/04/05 04:47:52;;;;;;;720.10;679.63;;;-2.20;99.90;;;;;;5065518;28;20205;-78
2023/04/05 04:50:22;;;;;;;705.53;664.17;;;-2.30;99.90;;;;;;5060923;28;20193;-78
2023/04/05 04:52:49;;;;;;;709.80;666.35;;;-2.40;99.90;;;;;;5060130;28;20196;-79
2023/04/05 04:55:16;;;;;;;729.17;684.08;;;-2.40;99.90;;;;;;5060659;28;20193;-78
2023/04/05 04:57:44;;;;;;;720.92;676.20;;;-2.40;99.90;;;;;;5064325;28;20215;-79
2023/04/05 05:00:14;;;;;;;718.65;674.55;;;-2.40;99.90;;;;;;5071170;28;20697;-78
2023/04/05 05:02:42;;;;;;;701.80;658.40;;;-2.40;99.90;;;;;;5063026;28;20652;-78
2023/04/05 05:05:11;;;;;;;695.10;651.63;;;-2.40;99.90;;;;;;5061485;28;20623;-78
2023/04/05 05:07:40;;;;;;;686.47;642.97;;;-2.40;99.90;;;;;;5063515;28;20188;-78
2023/04/05 05:10:09;;;;;;;689.53;646.95;;;-2.40;99.90;;;;;;5066205;28;20189;-78
2023/04/05 05:12:36;;;;;;;682.17;638.55;;;-2.40;99.90;;;;;;5055334;28;20228;-78
2023/04/05 05:15:03;;;;;;;679.45;636.40;;;-2.30;99.90;;;;;;5055068;28;20193;-78
2023/04/05 05:17:33;;;;;;;677.40;634.67;;;-2.20;99.90;;;;;;5064849;28;20679;-78
2023/04/05 05:20:00;;;;;;;678.70;634.10;;;-2.20;99.90;;;;;;5058212;28;20201;-78
2023/04/05 05:22:27;;;;;;;672.30;629.58;;;-2.10;99.90;;;;;;5071874;28;20192;-80
2023/04/05 05:24:56;;;;;;;674.03;631.13;;;-2.10;99.90;;;;;;5063132;28;20207;-78
2023/04/05 05:27:22;;;;;;;674.92;632.70;;;-2.00;99.90;;;;;;5064380;28;20189;-78
2023/04/05 05:29:49;;;;;;;676.92;625.13;;;-1.90;99.90;;;;;;5053964;28;20455;-78
2023/04/05 05:32:16;;;;;;;653.78;609.58;;;-2.00;99.90;;;;;;5058440;28;20249;-78
2023/04/05 05:34:43;;;;;;;675.70;629.65;;;-1.90;99.90;;;;;;5054620;28;20288;-78
2023/04/05 05:37:11;;;;;;;663.28;619.20;;;-1.90;99.90;;;;;;5054618;28;20213;-78
2023/04/05 05:39:41;;;;;;;663.63;619.83;;;-1.90;99.90;;;;;;5054268;28;20217;-78
2023/04/05 05:42:09;;;;;;;669.55;626.47;;;-1.80;99.90;;;;;;5054835;28;20251;-78
2023/04/05 05:44:36;;;;;;;673.72;630.38;;;-1.90;99.90;;;;;;5054507;28;20215;-78
2023/04/05 05:47:03;;;;;;;664.10;620.88;;;-1.80;99.90;;;;;;5054422;28;20684;-78
2023/04/05 05:49:30;;;;;;;693.10;646.58;;;-1.80;99.90;;;;;;5054435;28;20231;-78
2023/04/05 05:51:57;;;;;;;684.90;638.55;;;-1.60;99.90;;;;;;5053131;28;20200;-78
2023/04/05 05:54:25;;;;;;;692.80;647.00;;;-1.60;99.90;;;;;;5054440;28;20200;-78
2023/04/05 05:56:52;;;;;;;687.28;640.55;;;-1.50;99.90;;;;;;5053251;28;20239;-78
2023/04/05 05:59:21;;;;;;;682.63;635.90;;;-1.40;99.90;;;;;;5054323;28;20220;-78
2023/04/05 06:01:50;;;;;;;682.95;636.20;;;-1.40;99.90;;;;;;5054194;28;20601;-78
2023/04/05 06:04:17;;;;;;;681.28;635.28;;;-1.40;99.90;;;;;;5053693;28;20197;-78
2023/04/05 06:06:46;;;;;;;679.35;634.03;;;-1.30;99.90;;;;;;5053959;28;20205;-78
2023/04/05 06:09:13;;;;;;;689.55;644.17;;;-1.30;99.90;;;;;;5054306;28;20248;-78
2023/04/05 06:11:40;;;;;;;681.80;636.00;;;-1.20;99.90;;;;;;5054112;28;20575;-78
2023/04/05 06:14:07;;;;;;;689.72;643.78;;;-1.10;99.90;;;;;;5053999;28;20576;-78
2023/04/05 06:16:36;;;;;;;683.15;637.75;;;-1.10;99.90;;;;;;5053032;28;20673;-78
2023/04/05 06:19:02;;;;;;;675.97;631.47;;;-1.00;99.90;;;;;;5053703;28;20235;-78
2023/04/05 06:21:29;;;;;;;690.17;644.47;;;-0.90;99.90;;;;;;5053929;28;20232;-78
2023/04/05 06:23:56;;;;;;;697.63;652.38;;;-0.90;99.90;;;;;;5053579;28;20786;-78
2023/04/05 06:26:26;;;;;;;699.25;654.50;;;-0.80;99.90;;;;;;5053929;28;20204;-78
2023/04/05 06:28:53;;;;;;;696.58;650.95;;;-0.60;99.90;;;;;;5053668;28;20213;-78
2023/04/05 06:31:21;;;;;;;686.53;641.20;;;-0.50;99.90;;;;;;5053580;28;20204;-78
2023/04/05 06:33:50;;;;;;;703.10;657.63;;;-0.50;99.90;;;;;;5053572;28;20207;-78
2023/04/05 06:36:16;;;;;;;697.37;651.07;;;-0.30;99.90;;;;;;5053941;28;20197;-78
2023/04/05 06:38:44;;;;;;;697.20;652.50;;;-0.20;99.90;;;;;;5053813;28;20830;-78
2023/04/05 06:41:11;;;;;;;703.38;657.58;;;-0.10;99.90;;;;;;5052775;28;20447;-78
2023/04/05 06:43:38;;;;;;;708.50;662.75;;;0.00;99.90;;;;;;5054140;28;20211;-78
2023/04/05 06:46:07;;;;;;;714.83;667.90;;;0.10;99.90;;;;;;5053953;28;20208;-78
2023/04/05 06:48:34;;;;;;;699.92;655.03;;;0.30;99.90;;;;;;5054232;28;20498;-78
2023/04/05 06:51:03;;;;;;;701.17;656.38;;;0.40;99.90;;;;;;5053946;28;20204;-78
2023/04/05 06:53:30;;;;;;;715.40;669.43;;;0.50;99.90;;;;;;5053600;28;20219;-78
2023/04/05 06:55:59;;;;;;;698.53;654.97;;;0.60;99.90;;;;;;5053344;28;20450;-78
2023/04/05 06:58:27;;;;;;;700.93;655.60;;;0.80;99.90;;;;;;5052055;28;20483;-78
2023/04/05 07:00:54;;;;;;;681.33;638.87;;;1.00;99.90;;;;;;5053944;28;20464;-78
2023/04/05 07:03:21;;;;;;;658.50;618.07;;;1.10;99.90;;;;;;5053018;28;20898;-77
2023/04/05 07:05:53;;;;;;;632.70;596.40;;;1.20;99.90;;;;;;5053110;28;20490;-78
2023/04/05 07:08:21;;;;;;;619.33;585.13;;;1.40;99.90;;;;;;5053126;28;20468;-78
2023/04/05 07:10:49;;;;;;;595.07;563.50;;;1.50;99.90;;;;;;5052935;28;20455;-78
2023/04/05 07:13:16;;;;;;;562.27;534.10;;;1.60;99.90;;;;;;5052753;28;20505;-78
2023/04/05 07:15:44;;;;;;;552.77;525.30;;;1.70;99.90;;;;;;5052842;28;20508;-78
2023/04/05 07:18:11;;;;;;;474.02;452.77;;;1.80;99.90;;;;;;5052783;28;20490;-78
2023/04/05 07:20:39;;;;;;;469.37;449.13;;;2.00;99.90;;;;;;5052315;28;20193;-78
2023/04/05 07:23:06;;;;;;;426.80;409.30;;;2.10;99.90;;;;;;5053306;28;20455;-78
2023/04/05 07:25:34;;;;;;;359.10;344.83;;;2.20;99.90;;;;;;5067967;28;20447;-79
2023/04/05 07:28:02;;;;;;;344.27;330.40;;;2.30;99.90;;;;;;5067579;28;20473;-78
2023/04/05 07:30:31;;;;;;;290.93;279.13;;;2.50;99.90;;;;;;5068080;28;20457;-78
2023/04/05 07:33:01;;;;;;;203.53;195.93;;;2.60;99.90;;;;;;5066935;28;20454;-78
2023/04/05 07:35:28;;;;;;;122.00;116.80;;;2.70;99.90;;;;;;5051821;28;20447;-80
2023/04/05 07:37:56;;;;;;;118.17;113.07;;;2.80;99.90;;;;;;5052996;28;20497;-78
2023/04/05 07:40:23;;;;;;;42.13;39.37;;;2.90;99.90;;;;;;5070802;28;20462;-78
2023/04/05 07:42:51;;;;;;;32.90;22.57;;;3.10;99.90;;;;;;5072534;28;20457;-78
2023/04/05 07:45:18;;;;;;;20.87;17.03;;;3.20;99.90;;;;;;5072278;28;20450;-78
2023/04/05 07:47:46;;;;;;;19.30;12.20;;;3.20;99.90;;;;;;5072020;28;21020;-78
2023/04/05 07:50:14;;;;;;;17.33;12.30;;;3.30;99.90;;;;;;5072141;28;20458;-78
2023/04/05 07:52:40;;;;;;;21.60;11.13;;;3.50;99.90;;;;;;5072173;28;20891;-78
2023/04/05 07:55:08;;;;;;;13.80;9.70;;;3.60;99.90;;;;;;5071999;28;21006;-78
2023/04/05 07:57:36;;;;;;;18.23;10.20;;;3.70;99.90;;;;;;5072491;28;20827;-78
2023/04/05 08:00:09;;;;;;;18.43;10.20;;;3.90;99.90;;;;;;5072117;28;20455;-78
2023/04/05 08:02:36;;;;;;;16.63;9.57;;;4.20;99.90;;;;;;5072060;28;20454;-78
2023/04/05 08:05:03;;;;;;;17.53;9.30;;;4.60;99.90;;;;;;5071568;28;20450;-79
2023/04/05 08:07:30;;;;;;;13.00;8.03;;;5.00;99.90;;;;;;5072127;28;20866;-76
2023/04/05 08:09:58;;;;;;;16.37;8.90;;;5.40;99.90;;;;;;5071950;28;20454;-76
2023/04/05 08:12:26;;;;;;;12.67;7.60;;;5.80;99.90;;;;;;5071793;28;20462;-76
2023/04/05 08:14:53;;;;;;;17.50;8.83;;;6.20;96.00;;;;;;5071120;28;20458;-77
2023/04/05 08:17:25;;;;;;;10.90;8.10;;;6.50;93.10;;;;;;5071882;28;20962;-76
2023/04/05 08:19:52;;;;;;;10.73;7.30;;;6.80;90.10;;;;;;5071857;28;20501;-76
2023/04/05 08:22:19;;;;;;;14.83;8.23;;;7.10;86.60;;;;;;5071818;28;20450;-77
2023/04/05 08:24:46;;;;;;;13.40;7.13;;;7.40;83.40;;;;;;5071627;28;20459;-76
2023/04/05 08:27:13;;;;;;;11.97;7.80;;;7.60;79.80;;;;;;5071890;28;20461;-76
2023/04/05 08:29:41;;;;;;;22.00;7.40;;;8.00;78.90;;;;;;5071702;28;20473;-77
2023/04/05 08:32:08;;;;;;;13.00;6.30;;;8.40;74.50;;;;;;5071395;28;20454;-77
2023/04/05 08:34:37;;;;;;;13.90;6.90;;;8.80;73.80;;;;;;5071502;28;20457;-76
2023/04/05 08:37:07;;;;;;;11.87;7.40;;;8.90;69.90;;;;;;5071914;28;20454;-76
2023/04/05 08:39:36;;;;;;;12.73;7.07;;;9.30;66.80;;;;;;5070502;28;20481;-77
2023/04/05 08:42:09;;;;;;;11.33;7.30;;;9.30;62.90;;;;;;5071810;28;20542;-77
2023/04/05 08:44:37;;;;;;;14.97;6.70;;;9.50;64.10;;;;;;5071307;28;20557;-77
2023/04/05 08:47:05;;;;;;;13.30;6.87;;;9.60;64.00;;;;;;5071712;28;20466;-77
2023/04/05 08:49:33;;;;;;;11.07;7.50;;;9.70;61.60;;;;;;5071666;28;20471;-77
2023/04/05 08:52:03;;;;;;;12.23;7.30;;;9.70;61.70;;;;;;5071495;28;20450;-77
2023/04/05 08:54:30;;;;;;;13.67;7.83;;;9.90;58.90;;;;;;5071586;28;20822;-77
2023/04/05 08:57:02;;;;;;;14.73;8.00;;;10.10;57.90;;;;;;5071577;28;20450;-77
2023/04/05 08:59:35;;;;;;;12.53;7.50;;;10.50;55.50;;;;;;5070011;28;20482;-77
2023/04/05 09:02:06;;;;;;;17.83;8.53;;;10.50;52.50;;;;;;5071555;28;20450;-76
2023/04/05 09:04:38;;;;;;;12.00;7.50;;;10.90;52.40;;;;;;5071393;28;20458;-77
2023/04/05 09:07:08;;;;;;;15.67;7.10;;;11.10;49.20;;;;;;5071531;28;20450;-77
2023/04/05 09:09:37;;;;;;;12.83;7.00;;;11.30;45.10;;;;;;5069846;28;20475;-77
2023/04/05 09:12:05;;;;;;;5.20;2.20;;;11.10;42.50;;;;;;5071387;28;20450;-77
2023/04/05 09:14:36;;;;;;;11.97;7.57;;;10.50;42.90;;;;;;5070964;28;20822;-77
2023/04/05 09:17:03;;;;;;;14.50;7.27;;;10.90;44.70;;;;;;5071265;28;20462;-77
2023/04/05 09:19:30;;;;;;;16.87;8.50;;;11.40;42.60;;;;;;5071383;28;20492;-77
2023/04/05 09:22:01;;;;;;;14.93;7.47;;;11.80;42.30;;;;;;5071463;28;20459;-77
2023/04/05 09:24:35;;;;;;;11.43;7.37;;;12.20;40.10;;;;;;5071074;28;20492;-77
2023/04/05 09:27:11;;;;;;;11.00;6.50;;;12.80;34.10;;;;;;5073597;28;20895;-77
2023/04/05 09:29:39;;;;;;;12.47;6.40;;;13.10;34.80;;;;;;5075073;28;20479;-77
2023/04/05 09:32:07;;;;;;;11.97;6.60;;;13.50;29.50;;;;;;5074909;28;20456;-77
2023/04/05 09:34:36;;;;;;;14.77;7.70;;;13.70;26.40;;;;;;5074592;28;20450;-77
2023/04/05 09:37:04;;;;;;;11.63;6.47;;;14.20;25.20;;;;;;5075159;28;20479;-77
2023/04/05 09:39:33;;;;;;;11.80;6.60;;;14.00;21.00;;;;;;5074794;28;20479;-77
2023/04/05 09:42:07;;;;;;;14.23;6.37;;;14.30;21.50;;;;;;5074511;28;20958;-77
2023/04/05 09:44:50;;;;;;;10.17;6.97;;;14.60;20.70;;;;;;5074604;28;20453;-77
2023/04/05 09:47:17;;;;;;;13.40;7.10;;;14.60;18.00;;;;;;5071822;28;20513;-72
2023/04/05 09:49:51;;;;;;;9.77;6.70;;;14.40;18.20;;;;;;5059745;28;20468;-78
2023/04/05 09:52:19;;;;;;;11.73;7.40;;;14.70;15.90;;;;;;5065511;28;20455;-78
2023/04/05 09:54:46;;;;;;;16.63;7.57;;;15.30;19.50;;;;;;5073228;28;20468;-78
2023/04/05 09:57:18;;;;;;;12.47;7.40;;;14.70;13.70;;;;;;5057757;28;20448;-78
2023/04/05 09:59:45;;;;;;;15.63;7.70;;;14.50;15.30;;;;;;5062878;28;20461;-80
2023/04/05 10:02:12;;;;;;;10.83;6.47;;;14.60;18.40;;;;;;5057507;28;20448;-81
2023/04/05 10:04:40;;;;;;;14.40;6.70;;;15.50;15.90;;;;;;5059366;28;20455;-81
2023/04/05 10:07:08;;;;;;;16.50;8.90;;;15.70;9.90;;;;;;5056539;28;20447;-82
2023/04/05 10:09:37;;;;;;;13.67;7.13;;;16.40;9.60;;;;;;5062810;28;20475;-81
2023/04/05 10:12:06;;;;;;;13.17;6.27;;;15.70;4.20;;;;;;5065350;28;20823;-81
2023/04/05 10:14:38;;;;;;;12.33;7.57;;;15.60;9.00;;;;;;5065944;28;20478;-81
2023/04/05 10:17:12;;;;;;;14.13;7.10;;;16.50;6.30;;;;;;5056822;28;20505;-80
2023/04/05 10:19:51;;;;;;;12.73;6.57;;;16.10;1.00;;;;;;5073451;28;20475;-80
2023/04/05 10:22:25;;;;;;;13.23;6.07;;;15.60;1.40;;;;;;5069161;28;20450;-80
2023/04/05 10:24:57;;;;;;;10.47;6.17;;;16.10;6.20;;;;;;5053392;28;20452;-81
2023/04/05 10:27:32;;;;;;;11.30;5.80;;;16.50;1.00;;;;;;5058112;28;20869;-83
2023/04/05 10:30:07;;;;;;;11.63;6.40;;;16.70;2.20;;;;;;5066123;28;20446;-81
2023/04/05 10:33:06;;;;;;;12.90;7.00;;;16.40;1.00;;;;;;5073764;28;20802;-81
2023/04/05 10:35:48;;;;;;;12.43;6.90;;;16.30;1.00;;;;;;5071730;28;20450;-82
2023/04/05 10:38:23;;;;;;;9.83;5.97;;;16.50;1.00;;;;;;5069607;28;20502;-76
2023/04/05 10:40:54;;;;;;;10.90;6.33;;;16.00;1.00;;;;;;5051381;28;20460;-81
2023/04/05 10:43:27;;;;;;;10.23;5.60;;;16.20;1.00;;;;;;5054099;28;20950;-81
2023/04/05 10:45:58;;;;;;;13.50;7.30;;;16.30;1.00;;;;;;5069675;28;20466;-81
2023/04/05 10:48:40;;;;;;;10.57;6.50;;;16.40;1.00;;;;;;5070888;28;20640;-81
2023/04/05 10:51:07;;;;;;;14.10;6.40;;;16.60;1.00;;;;;;5038728;28;20880;-81
2023/04/05 10:53:37;;;;;;;9.37;6.10;;;17.20;1.00;;;;;;5056977;28;20531;-82
2023/04/05 10:56:06;;;;;;;11.07;6.80;;;16.90;1.00;;;;;;5071283;28;20536;-81
2023/04/05 10:58:34;;;;;;;11.27;6.40;;;17.40;1.00;;;;;;5069810;28;21070;-81
2023/04/05 11:01:03;;;;;;;10.90;6.00;;;17.30;1.00;;;;;;5072879;28;20500;-80
2023/04/05 11:03:49;;;;;;;8.80;5.73;;;17.30;1.00;;;;;;5062488;28;20449;-81
2023/04/05 11:06:25;;;;;;;10.13;5.47;;;16.30;1.00;;;;;;5061104;28;20825;-80
2023/04/05 11:08:59;;;;;;;9.63;5.80;;;15.90;1.00;;;;;;5068456;28;20554;-80
2023/04/05 11:11:27;;;;;;;12.60;5.87;;;17.00;1.00;;;;;;5068120;28;20505;-81
2023/04/05 11:13:57;;;;;;;10.43;6.13;;;16.30;1.00;;;;;;5071043;28;20472;-81
2023/04/05 11:16:40;;;;;;;11.20;5.83;;;16.00;1.00;;;;;;5053082;28;20516;-81
2023/04/05 11:19:06;;;;;;;12.63;5.70;;;16.00;1.00;;;;;;5063609;28;20502;-80
2023/04/05 11:21:34;;;;;;;12.27;6.10;;;15.80;1.00;;;;;;5053347;28;20455;-79
2023/04/05 11:24:03;;;;;;;10.07;6.03;;;16.70;1.00;;;;;;5052223;28;20952;-80
2023/04/05 11:26:34;;;;;;;12.43;6.30;;;16.80;1.00;;;;;;5052168;28;20505;-81
2023/04/05 11:29:05;;;;;;;10.20;5.80;;;16.70;1.00;;;;;;5066538;28;20467;-82
2023/04/05 11:31:37;;;;;;;12.30;5.93;;;16.30;1.00;;;;;;5061443;28;20458;-81
2023/04/05 11:34:10;;;;;;;10.93;6.50;;;17.00;1.00;;;;;;5051230;28;20456;-81
2023/04/05 11:36:50;;;;;;;10.73;6.03;;;16.60;1.00;;;;;;5062657;28;20462;-91
2023/04/05 11:39:27;;;;;;;15.80;6.47;;;16.60;1.00;;;;;;5072001;28;20514;-80
2023/04/05 11:42:02;;;;;;;9.23;6.17;;;16.20;1.00;;;;;;5059671;28;20858;-80
2023/04/05 11:44:39;;;;;;;11.57;6.70;;;16.20;1.00;;;;;;5059635;28;20493;-80
2023/04/05 11:47:11;;;;;;;12.20;6.17;;;16.20;1.00;;;;;;5072275;28;20545;-80
2023/04/05 11:49:41;;;;;;;12.63;7.10;;;16.60;1.00;;;;;;5061579;28;21017;-81
2023/04/05 11:52:21;;;;;;;12.37;6.63;;;18.10;1.00;;;;;;5051969;28;20501;-81
2023/04/05 11:54:50;;;;;;;13.10;7.40;;;18.10;1.00;;;;;;5053159;28;20983;-81
2023/04/05 11:57:21;;;;;;;11.80;6.63;;;18.60;1.00;;;;;;5065250;28;20450;-80
2023/04/05 11:59:53;;;;;;;11.20;6.50;;;17.60;1.00;;;;;;5071158;28;20475;-80
2023/04/05 12:02:21;;;;;;;11.90;7.20;;;17.00;1.00;;;;;;5069446;28;20988;-80
2023/04/05 12:04:57;;;;;;;15.50;7.43;;;17.30;1.00;;;;;;5069685;28;20535;-81
2023/04/05 12:07:27;;;;;;;12.70;6.60;;;18.00;1.00;;;;;;5067715;28;20485;-78
2023/04/05 12:10:06;;;;;;;9.80;6.70;;;19.00;1.00;;;;;;5047591;28;20445;-81
2023/04/05 12:12:39;;;;;;;11.07;6.83;;;18.70;1.00;;;;;;5055825;28;20509;-80
2023/04/05 12:15:09;;;;;;;12.60;6.30;;;18.50;1.00;;;;;;5057970;28;20538;-82
2023/04/05 12:17:48;;;;;;;11.90;6.00;;;17.30;1.00;;;;;;5056469;28;20519;-82
2023/04/05 12:20:19;;;;;;;10.20;6.33;;;16.70;1.00;;;;;;5061678;28;20473;-81
2023/04/05 12:22:48;;;;;;;11.90;6.33;;;17.10;1.00;;;;;;5056650;28;20559;-82
2023/04/05 12:25:17;;;;;;;11.10;6.07;;;17.60;1.00;;;;;;5060369;28;20453;-82
2023/04/05 12:27:53;;;;;;;11.07;6.60;;;17.60;1.00;;;;;;5055129;28;20449;-82
2023/04/05 12:30:34;;;;;;;11.70;5.73;;;18.50;1.00;;;;;;5031606;28;20519;-80
2023/04/05 12:33:08;;;;;;;15.67;6.40;;;17.20;1.00;;;;;;5038969;28;20454;-81
2023/04/05 12:35:36;;;;;;;12.23;7.83;;;16.30;1.00;;;;;;5071398;28;20460;-81